sensor_id;sensor_type;location;lat;lon;timestamp;pressure;altitude;pressure_sealevel;temperature;humidity
9261;BME280;4667;42.726;23.252;2024-02-21T00:02:26;95571.75;;;4.66;66.07
9261;BME280;4667;42.726;23.252;2024-02-21T00:04:53;95717.88;;;5.47;65.61
9261;BME280;4667;42.726;23.252;2024-02-21T00:07:20;95416.44;;;3.36;65.83
9261;BME280;4667;42.726;23.252;2024-02-21T00:09:49;95892.00;;;6.36;66.48
9261;BME280;4667;42.726;23.252;2024-02-21T00:12:16;95890.38;;;6.42;66.23
9261;BME280;4667;42.726;23.252;2024-02-21T00:14:44;95852.09;;;6.34;65.94
9261;BME280;4667;42.726;23.252;2024-02-21T00:17:11;95866.41;;;6.45;65.95
9261;BME280;4667;42.726;23.252;2024-02-21T00:19:38;95881.25;;;6.58;65.90
9261;BME280;4667;42.726;23.252;2024-02-21T00:22:07;95817.91;;;6.09;66.65
9261;BME280;4667;42.726;23.252;2024-02-21T00:24:35;95825.34;;;6.12;66.76
9261;BME280;4667;42.726;23.252;2024-02-21T00:27:05;95883.28;;;6.56;66.22
9261;BME280;4667;42.726;23.252;2024-02-21T00:29:32;95594.44;;;4.73;65.89
9261;BME280;4667;42.726;23.252;2024-02-21T00:32:00;95863.38;;;6.28;66.76
9261;BME280;4667;42.726;23.252;2024-02-21T00:34:27;95877.69;;;6.45;66.28
9261;BME280;4667;42.726;23.252;2024-02-21T00:36:54;95867.75;;;6.54;65.98
9261;BME280;4667;42.726;23.252;2024-02-21T00:39:21;95784.09;;;5.74;66.20
9261;BME280;4667;42.726;23.252;2024-02-21T00:41:50;95533.34;;;4.01;66.61
9261;BME280;4667;42.726;23.252;2024-02-21T00:44:20;95880.50;;;6.24;66.51
9261;BME280;4667;42.726;23.252;2024-02-21T00:46:47;95756.91;;;5.36;67.36
9261;BME280;4667;42.726;23.252;2024-02-21T00:49:14;95528.88;;;3.88;66.95
9261;BME280;4667;42.726;23.252;2024-02-21T00:51:41;95806.25;;;5.59;67.14
9261;BME280;4667;42.726;23.252;2024-02-21T00:54:09;95864.81;;;5.78;68.14
9261;BME280;4667;42.726;23.252;2024-02-21T00:56:38;95813.06;;;5.66;68.04
9261;BME280;4667;42.726;23.252;2024-02-21T00:59:05;95681.28;;;4.94;67.23
9261;BME280;4667;42.726;23.252;2024-02-21T01:01:34;95862.59;;;6.21;67.02
9261;BME280;4667;42.726;23.252;2024-02-21T01:04:01;95446.16;;;3.62;66.67
9261;BME280;4667;42.726;23.252;2024-02-21T01:06:28;95673.66;;;5.33;66.41
9261;BME280;4667;42.726;23.252;2024-02-21T01:08:55;95627.81;;;5.04;65.82
9261;BME280;4667;42.726;23.252;2024-02-21T01:11:22;95639.06;;;5.17;65.85
9261;BME280;4667;42.726;23.252;2024-02-21T01:13:50;95834.13;;;6.51;65.97
9261;BME280;4667;42.726;23.252;2024-02-21T01:16:17;95834.31;;;6.49;65.84
9261;BME280;4667;42.726;23.252;2024-02-21T01:18:46;95742.16;;;5.88;66.07
9261;BME280;4667;42.726;23.252;2024-02-21T01:21:13;95719.44;;;5.75;66.03
9261;BME280;4667;42.726;23.252;2024-02-21T01:23:40;95837.31;;;6.53;66.13
9261;BME280;4667;42.726;23.252;2024-02-21T01:26:07;95841.13;;;6.64;65.54
9261;BME280;4667;42.726;23.252;2024-02-21T01:28:34;95834.72;;;6.53;66.26
9261;BME280;4667;42.726;23.252;2024-02-21T01:31:03;95771.16;;;6.13;65.69
9261;BME280;4667;42.726;23.252;2024-02-21T01:33:30;95823.66;;;6.38;66.19
9261;BME280;4667;42.726;23.252;2024-02-21T01:36:02;95562.06;;;4.93;65.52
9261;BME280;4667;42.726;23.252;2024-02-21T01:38:32;95617.53;;;5.22;65.05
9261;BME280;4667;42.726;23.252;2024-02-21T01:40:59;95465.06;;;4.37;65.46
9261;BME280;4667;42.726;23.252;2024-02-21T01:43:26;95824.81;;;6.62;65.67
9261;BME280;4667;42.726;23.252;2024-02-21T01:45:55;95772.31;;;6.23;65.88
9261;BME280;4667;42.726;23.252;2024-02-21T01:48:23;95707.94;;;5.83;65.79
9261;BME280;4667;42.726;23.252;2024-02-21T01:50:50;95680.84;;;5.51;65.50
9261;BME280;4667;42.726;23.252;2024-02-21T01:53:21;95498.00;;;4.58;64.79
9261;BME280;4667;42.726;23.252;2024-02-21T01:55:49;95665.53;;;5.61;64.80
9261;BME280;4667;42.726;23.252;2024-02-21T01:58:18;95614.13;;;4.95;65.33
9261;BME280;4667;42.726;23.252;2024-02-21T02:00:47;95480.34;;;4.27;64.82
9261;BME280;4667;42.726;23.252;2024-02-21T02:03:15;95514.06;;;4.61;64.66
9261;BME280;4667;42.726;23.252;2024-02-21T02:05:44;95763.69;;;6.16;65.02
9261;BME280;4667;42.726;23.252;2024-02-21T02:08:12;95799.06;;;6.39;64.96
9261;BME280;4667;42.726;23.252;2024-02-21T02:10:42;95817.03;;;6.29;65.33
9261;BME280;4667;42.726;23.252;2024-02-21T02:13:10;95490.38;;;4.36;64.83
9261;BME280;4667;42.726;23.252;2024-02-21T02:15:41;95796.22;;;6.47;64.76
9261;BME280;4667;42.726;23.252;2024-02-21T02:18:09;95810.94;;;6.48;64.66
9261;BME280;4667;42.726;23.252;2024-02-21T02:20:37;95693.31;;;5.68;64.99
9261;BME280;4667;42.726;23.252;2024-02-21T02:23:07;95725.03;;;5.98;64.67
9261;BME280;4667;42.726;23.252;2024-02-21T02:25:37;95799.81;;;6.59;64.40
9261;BME280;4667;42.726;23.252;2024-02-21T02:28:06;95804.84;;;6.54;64.44
9261;BME280;4667;42.726;23.252;2024-02-21T02:30:33;95749.72;;;6.29;64.19
9261;BME280;4667;42.726;23.252;2024-02-21T02:33:02;95741.50;;;6.19;64.35
9261;BME280;4667;42.726;23.252;2024-02-21T02:35:29;95795.63;;;6.51;64.38
9261;BME280;4667;42.726;23.252;2024-02-21T02:37:56;95723.84;;;6.01;64.24
9261;BME280;4667;42.726;23.252;2024-02-21T02:40:24;95791.03;;;6.34;65.11
9261;BME280;4667;42.726;23.252;2024-02-21T02:42:53;95525.28;;;4.75;65.26
9261;BME280;4667;42.726;23.252;2024-02-21T02:45:21;95794.00;;;6.44;65.28
9261;BME280;4667;42.726;23.252;2024-02-21T02:47:52;95805.69;;;6.48;64.83
9261;BME280;4667;42.726;23.252;2024-02-21T02:50:20;95735.34;;;6.00;64.71
9261;BME280;4667;42.726;23.252;2024-02-21T02:52:47;95766.31;;;6.16;64.83
9261;BME280;4667;42.726;23.252;2024-02-21T02:55:15;95628.75;;;5.36;64.70
9261;BME280;4667;42.726;23.252;2024-02-21T02:57:43;95790.78;;;6.48;64.84
9261;BME280;4667;42.726;23.252;2024-02-21T03:00:13;95804.69;;;6.56;64.60
9261;BME280;4667;42.726;23.252;2024-02-21T03:02:44;95720.59;;;6.12;64.61
9261;BME280;4667;42.726;23.252;2024-02-21T03:05:13;95701.91;;;5.95;64.76
9261;BME280;4667;42.726;23.252;2024-02-21T03:07:41;95594.81;;;5.22;64.25
9261;BME280;4667;42.726;23.252;2024-02-21T03:10:09;95730.22;;;6.18;63.76
9261;BME280;4667;42.726;23.252;2024-02-21T03:12:36;95552.03;;;4.84;64.07
9261;BME280;4667;42.726;23.252;2024-02-21T03:15:08;95815.88;;;6.69;63.73
9261;BME280;4667;42.726;23.252;2024-02-21T03:17:36;95802.69;;;6.51;63.56
9261;BME280;4667;42.726;23.252;2024-02-21T03:20:02;95526.34;;;4.61;64.01
9261;BME280;4667;42.726;23.252;2024-02-21T03:22:31;95689.06;;;5.61;63.70
9261;BME280;4667;42.726;23.252;2024-02-21T03:24:59;95542.41;;;4.58;64.07
9261;BME280;4667;42.726;23.252;2024-02-21T03:27:26;95689.28;;;5.59;63.78
9261;BME280;4667;42.726;23.252;2024-02-21T03:29:54;95808.94;;;6.50;63.76
9261;BME280;4667;42.726;23.252;2024-02-21T03:32:21;95605.25;;;5.16;63.05
9261;BME280;4667;42.726;23.252;2024-02-21T03:34:50;95625.97;;;5.24;63.64
9261;BME280;4667;42.726;23.252;2024-02-21T03:37:17;95643.88;;;5.20;63.40
9261;BME280;4667;42.726;23.252;2024-02-21T03:39:44;95717.25;;;5.79;63.58
9261;BME280;4667;42.726;23.252;2024-02-21T03:42:11;95798.50;;;6.23;64.18
9261;BME280;4667;42.726;23.252;2024-02-21T03:44:39;95827.09;;;6.38;64.62
9261;BME280;4667;42.726;23.252;2024-02-21T03:47:06;95726.09;;;5.71;63.96
9261;BME280;4667;42.726;23.252;2024-02-21T03:49:37;95824.25;;;6.46;63.63
9261;BME280;4667;42.726;23.252;2024-02-21T03:52:06;95629.81;;;4.95;64.20
9261;BME280;4667;42.726;23.252;2024-02-21T03:54:34;95828.16;;;6.17;64.41
9261;BME280;4667;42.726;23.252;2024-02-21T03:57:01;95823.06;;;6.42;63.87
9261;BME280;4667;42.726;23.252;2024-02-21T03:59:29;95778.03;;;6.01;63.87
9261;BME280;4667;42.726;23.252;2024-02-21T04:01:56;95698.38;;;5.43;63.70
9261;BME280;4667;42.726;23.252;2024-02-21T04:04:24;95828.06;;;6.44;63.71
9261;BME280;4667;42.726;23.252;2024-02-21T04:06:51;95687.66;;;5.65;63.44
9261;BME280;4667;42.726;23.252;2024-02-21T04:09:20;95717.81;;;6.01;63.33
9261;BME280;4667;42.726;23.252;2024-02-21T04:11:48;95840.91;;;6.65;63.07
9261;BME280;4667;42.726;23.252;2024-02-21T04:14:15;95693.47;;;5.80;62.95
9261;BME280;4667;42.726;23.252;2024-02-21T04:16:42;95823.44;;;6.46;63.36
9261;BME280;4667;42.726;23.252;2024-02-21T04:19:09;95671.59;;;5.48;62.99
9261;BME280;4667;42.726;23.252;2024-02-21T04:21:37;95824.66;;;6.50;63.07
9261;BME280;4667;42.726;23.252;2024-02-21T04:24:04;95821.03;;;6.38;63.59
9261;BME280;4667;42.726;23.252;2024-02-21T04:26:33;95820.25;;;6.37;63.54
9261;BME280;4667;42.726;23.252;2024-02-21T04:29:01;95819.63;;;6.42;63.25
9261;BME280;4667;42.726;23.252;2024-02-21T04:31:28;95684.69;;;5.48;63.55
9261;BME280;4667;42.726;23.252;2024-02-21T04:33:56;95701.97;;;5.56;63.84
9261;BME280;4667;42.726;23.252;2024-02-21T04:36:23;95728.94;;;5.69;63.48
9261;BME280;4667;42.726;23.252;2024-02-21T04:38:50;95833.00;;;6.20;64.05
9261;BME280;4667;42.726;23.252;2024-02-21T04:41:18;95646.28;;;4.95;64.08
9261;BME280;4667;42.726;23.252;2024-02-21T04:43:49;95779.06;;;5.66;65.04
9261;BME280;4667;42.726;23.252;2024-02-21T04:46:16;95767.97;;;5.71;64.51
9261;BME280;4667;42.726;23.252;2024-02-21T04:48:43;95775.44;;;5.54;65.45
9261;BME280;4667;42.726;23.252;2024-02-21T04:51:11;95695.78;;;4.97;65.58
9261;BME280;4667;42.726;23.252;2024-02-21T04:53:39;95821.53;;;5.82;65.77
9261;BME280;4667;42.726;23.252;2024-02-21T04:56:06;95577.91;;;4.12;65.86
9261;BME280;4667;42.726;23.252;2024-02-21T04:58:37;95708.25;;;5.02;65.68
9261;BME280;4667;42.726;23.252;2024-02-21T05:01:07;95742.66;;;5.38;65.66
9261;BME280;4667;42.726;23.252;2024-02-21T05:03:35;95710.66;;;5.16;66.02
9261;BME280;4667;42.726;23.252;2024-02-21T05:06:03;95620.34;;;4.54;65.92
9261;BME280;4667;42.726;23.252;2024-02-21T05:08:31;95799.78;;;5.61;65.55
9261;BME280;4667;42.726;23.252;2024-02-21T05:10:59;95836.63;;;6.06;65.26
9261;BME280;4667;42.726;23.252;2024-02-21T05:13:26;95682.50;;;4.99;64.96
9261;BME280;4667;42.726;23.252;2024-02-21T05:15:54;95758.72;;;5.42;65.09
9261;BME280;4667;42.726;23.252;2024-02-21T05:18:23;95853.13;;;5.87;65.21
9261;BME280;4667;42.726;23.252;2024-02-21T05:20:51;95720.94;;;5.18;65.02
9261;BME280;4667;42.726;23.252;2024-02-21T05:23:18;95852.56;;;6.05;65.62
9261;BME280;4667;42.726;23.252;2024-02-21T05:25:45;95470.25;;;3.71;65.13
9261;BME280;4667;42.726;23.252;2024-02-21T05:28:16;95466.84;;;3.70;64.75
9261;BME280;4667;42.726;23.252;2024-02-21T05:30:43;95656.16;;;5.00;64.47
9261;BME280;4667;42.726;23.252;2024-02-21T05:33:11;95529.75;;;4.22;64.37
9261;BME280;4667;42.726;23.252;2024-02-21T05:35:48;95847.47;;;6.30;64.27
9261;BME280;4667;42.726;23.252;2024-02-21T05:38:15;95741.44;;;5.54;64.24
9261;BME280;4667;42.726;23.252;2024-02-21T05:40:43;95841.03;;;6.19;63.82
9261;BME280;4667;42.726;23.252;2024-02-21T05:43:13;95834.19;;;6.24;63.80
9261;BME280;4667;42.726;23.252;2024-02-21T05:45:40;95733.16;;;5.51;63.88
9261;BME280;4667;42.726;23.252;2024-02-21T05:48:08;95851.50;;;6.25;63.54
9261;BME280;4667;42.726;23.252;2024-02-21T05:50:34;95843.84;;;6.24;63.53
9261;BME280;4667;42.726;23.252;2024-02-21T05:53:02;95847.47;;;6.36;63.26
9261;BME280;4667;42.726;23.252;2024-02-21T05:55:30;95751.66;;;5.76;63.07
9261;BME280;4667;42.726;23.252;2024-02-21T05:57:57;95568.53;;;4.51;62.50
9261;BME280;4667;42.726;23.252;2024-02-21T06:00:24;95727.13;;;5.50;62.81
9261;BME280;4667;42.726;23.252;2024-02-21T06:02:54;95842.41;;;6.41;62.25
9261;BME280;4667;42.726;23.252;2024-02-21T06:05:21;95860.69;;;6.61;62.18
9261;BME280;4667;42.726;23.252;2024-02-21T06:07:49;95844.97;;;6.61;62.00
9261;BME280;4667;42.726;23.252;2024-02-21T06:10:21;95678.84;;;5.46;61.72
9261;BME280;4667;42.726;23.252;2024-02-21T06:12:48;95860.09;;;6.59;62.25
9261;BME280;4667;42.726;23.252;2024-02-21T06:15:16;95662.31;;;5.52;61.16
9261;BME280;4667;42.726;23.252;2024-02-21T06:17:44;95630.41;;;5.17;60.96
9261;BME280;4667;42.726;23.252;2024-02-21T06:20:11;95741.56;;;6.06;60.74
9261;BME280;4667;42.726;23.252;2024-02-21T06:22:39;95482.94;;;4.40;61.34
9261;BME280;4667;42.726;23.252;2024-02-21T06:25:06;95868.06;;;6.84;61.35
9261;BME280;4667;42.726;23.252;2024-02-21T06:27:35;95879.34;;;6.85;61.13
9261;BME280;4667;42.726;23.252;2024-02-21T06:30:02;95877.06;;;7.08;60.76
9261;BME280;4667;42.726;23.252;2024-02-21T06:32:30;95778.47;;;6.56;60.40
9261;BME280;4667;42.726;23.252;2024-02-21T06:34:57;95717.84;;;6.39;59.49
9261;BME280;4667;42.726;23.252;2024-02-21T06:37:24;95770.75;;;6.67;59.50
9261;BME280;4667;42.726;23.252;2024-02-21T06:39:51;95836.13;;;7.39;59.03
9261;BME280;4667;42.726;23.252;2024-02-21T06:42:18;95839.28;;;7.47;58.63
9261;BME280;4667;42.726;23.252;2024-02-21T06:44:49;95893.94;;;7.89;58.09
9261;BME280;4667;42.726;23.252;2024-02-21T06:47:17;95892.63;;;7.98;58.03
9261;BME280;4667;42.726;23.252;2024-02-21T06:49:51;95804.75;;;7.19;58.80
9261;BME280;4667;42.726;23.252;2024-02-21T06:52:18;95872.94;;;7.82;58.70
9261;BME280;4667;42.726;23.252;2024-02-21T06:54:50;95781.63;;;7.34;58.17
9261;BME280;4667;42.726;23.252;2024-02-21T06:57:17;95661.50;;;6.61;58.13
9261;BME280;4667;42.726;23.252;2024-02-21T06:59:44;95841.34;;;7.95;57.59
9261;BME280;4667;42.726;23.252;2024-02-21T07:02:13;95613.72;;;6.59;57.29
9261;BME280;4667;42.726;23.252;2024-02-21T07:04:41;95902.56;;;8.46;56.99
9261;BME280;4667;42.726;23.252;2024-02-21T07:07:09;95904.19;;;8.65;56.74
9261;BME280;4667;42.726;23.252;2024-02-21T07:09:36;95785.00;;;7.66;56.94
9261;BME280;4667;42.726;23.252;2024-02-21T07:12:03;95900.09;;;8.69;56.55
9261;BME280;4667;42.726;23.252;2024-02-21T07:14:32;95562.88;;;6.10;58.01
9261;BME280;4667;42.726;23.252;2024-02-21T07:16:59;95601.31;;;6.48;57.47
9261;BME280;4667;42.726;23.252;2024-02-21T07:19:28;95905.50;;;8.56;58.30
9261;BME280;4667;42.726;23.252;2024-02-21T07:21:58;95547.16;;;6.42;58.46
9261;BME280;4667;42.726;23.252;2024-02-21T07:24:26;95671.84;;;7.31;57.67
9261;BME280;4667;42.726;23.252;2024-02-21T07:26:53;95449.63;;;5.83;57.38
9261;BME280;4667;42.726;23.252;2024-02-21T07:29:21;95690.28;;;7.24;58.07
9261;BME280;4667;42.726;23.252;2024-02-21T07:31:50;95712.72;;;7.20;58.00
9261;BME280;4667;42.726;23.252;2024-02-21T07:34:19;95931.75;;;8.81;57.40
9261;BME280;4667;42.726;23.252;2024-02-21T07:36:50;95856.84;;;8.47;57.33
9261;BME280;4667;42.726;23.252;2024-02-21T07:39:17;95912.81;;;8.91;57.37
9261;BME280;4667;42.726;23.252;2024-02-21T07:41:45;95584.31;;;6.57;57.11
9261;BME280;4667;42.726;23.252;2024-02-21T07:44:14;95830.19;;;8.18;58.03
9261;BME280;4667;42.726;23.252;2024-02-21T07:46:42;95829.94;;;8.26;58.62
9261;BME280;4667;42.726;23.252;2024-02-21T07:49:10;95699.97;;;7.67;57.93
9261;BME280;4667;42.726;23.252;2024-02-21T07:51:38;95699.63;;;7.64;57.24
9261;BME280;4667;42.726;23.252;2024-02-21T07:54:06;95898.84;;;8.72;58.05
9261;BME280;4667;42.726;23.252;2024-02-21T07:56:33;95851.31;;;8.55;58.06
9261;BME280;4667;42.726;23.252;2024-02-21T07:59:00;95855.69;;;8.61;57.52
9261;BME280;4667;42.726;23.252;2024-02-21T08:01:27;95891.03;;;8.83;58.00
9261;BME280;4667;42.726;23.252;2024-02-21T08:03:54;95894.25;;;8.85;57.26
9261;BME280;4667;42.726;23.252;2024-02-21T08:06:21;95537.47;;;6.67;56.91
9261;BME280;4667;42.726;23.252;2024-02-21T08:08:48;95892.25;;;8.99;57.29
9261;BME280;4667;42.726;23.252;2024-02-21T08:11:16;95893.94;;;9.12;57.00
9261;BME280;4667;42.726;23.252;2024-02-21T08:13:43;95832.72;;;8.87;56.60
9261;BME280;4667;42.726;23.252;2024-02-21T08:16:15;95381.88;;;6.00;56.75
9261;BME280;4667;42.726;23.252;2024-02-21T08:18:51;95818.25;;;8.96;56.13
9261;BME280;4667;42.726;23.252;2024-02-21T08:21:18;95898.38;;;9.30;56.95
9261;BME280;4667;42.726;23.252;2024-02-21T08:23:44;95894.50;;;9.62;56.16
9261;BME280;4667;42.726;23.252;2024-02-21T08:26:11;95893.97;;;9.84;55.32
9261;BME280;4667;42.726;23.252;2024-02-21T08:28:40;95853.56;;;9.18;55.23
9261;BME280;4667;42.726;23.252;2024-02-21T08:31:06;95738.56;;;8.47;55.72
9261;BME280;4667;42.726;23.252;2024-02-21T08:33:33;95887.13;;;9.53;55.41
9261;BME280;4667;42.726;23.252;2024-02-21T08:36:00;95893.22;;;9.65;55.45
9261;BME280;4667;42.726;23.252;2024-02-21T08:38:28;95840.84;;;9.15;56.26
9261;BME280;4667;42.726;23.252;2024-02-21T08:40:55;95902.47;;;9.56;54.65
9261;BME280;4667;42.726;23.252;2024-02-21T08:43:22;95657.16;;;8.22;53.52
9261;BME280;4667;42.726;23.252;2024-02-21T08:45:50;95899.53;;;9.34;54.71
9261;BME280;4667;42.726;23.252;2024-02-21T08:48:17;95898.00;;;9.56;53.82
9261;BME280;4667;42.726;23.252;2024-02-21T08:50:44;95912.31;;;9.30;54.51
9261;BME280;4667;42.726;23.252;2024-02-21T08:53:11;95895.59;;;9.55;53.94
9261;BME280;4667;42.726;23.252;2024-02-21T08:55:39;95898.88;;;9.20;54.52
9261;BME280;4667;42.726;23.252;2024-02-21T08:58:06;95895.81;;;9.23;54.87
9261;BME280;4667;42.726;23.252;2024-02-21T09:00:33;95855.00;;;9.02;55.12
9261;BME280;4667;42.726;23.252;2024-02-21T09:03:02;95896.53;;;9.30;55.19
9261;BME280;4667;42.726;23.252;2024-02-21T09:05:30;95895.97;;;9.10;54.83
9261;BME280;4667;42.726;23.252;2024-02-21T09:07:57;95898.00;;;9.26;54.63
9261;BME280;4667;42.726;23.252;2024-02-21T09:10:24;95781.13;;;8.55;53.82
9261;BME280;4667;42.726;23.252;2024-02-21T09:12:51;95899.09;;;9.37;53.95
9261;BME280;4667;42.726;23.252;2024-02-21T09:15:18;95900.97;;;9.48;55.03
9261;BME280;4667;42.726;23.252;2024-02-21T09:17:45;95819.50;;;8.93;54.28
9261;BME280;4667;42.726;23.252;2024-02-21T09:20:14;95892.38;;;9.95;53.68
9261;BME280;4667;42.726;23.252;2024-02-21T09:22:41;95895.63;;;10.20;53.63
9261;BME280;4667;42.726;23.252;2024-02-21T09:25:08;95888.09;;;10.59;51.59
9261;BME280;4667;42.726;23.252;2024-02-21T09:27:37;95823.56;;;10.50;50.02
9261;BME280;4667;42.726;23.252;2024-02-21T09:30:05;95620.91;;;8.84;51.74
9261;BME280;4667;42.726;23.252;2024-02-21T09:32:32;95890.81;;;11.28;49.19
9261;BME280;4667;42.726;23.252;2024-02-21T09:34:59;95891.50;;;12.09;47.83
9261;BME280;4667;42.726;23.252;2024-02-21T09:37:28;95884.00;;;12.56;46.51
9261;BME280;4667;42.726;23.252;2024-02-21T09:39:55;95894.00;;;13.15;44.80
9261;BME280;4667;42.726;23.252;2024-02-21T09:42:27;95892.25;;;13.69;43.79
9261;BME280;4667;42.726;23.252;2024-02-21T09:44:58;95886.59;;;15.04;40.79
9261;BME280;4667;42.726;23.252;2024-02-21T09:47:33;95883.06;;;15.51;39.51
9261;BME280;4667;42.726;23.252;2024-02-21T09:50:06;95779.91;;;15.43;37.50
9261;BME280;4667;42.726;23.252;2024-02-21T09:52:35;95808.84;;;15.34;38.77
9261;BME280;4667;42.726;23.252;2024-02-21T09:55:04;95873.66;;;15.23;39.29
9261;BME280;4667;42.726;23.252;2024-02-21T09:57:34;95848.44;;;15.26;38.71
9261;BME280;4667;42.726;23.252;2024-02-21T10:00:01;95877.25;;;14.92;38.81
9261;BME280;4667;42.726;23.252;2024-02-21T10:02:32;95588.25;;;13.27;39.26
9261;BME280;4667;42.726;23.252;2024-02-21T10:05:00;95879.63;;;14.88;39.29
9261;BME280;4667;42.726;23.252;2024-02-21T10:07:28;95688.16;;;13.05;40.53
9261;BME280;4667;42.726;23.252;2024-02-21T10:10:02;95871.66;;;14.46;39.00
9261;BME280;4667;42.726;23.252;2024-02-21T10:12:29;95838.41;;;14.38;38.91
9261;BME280;4667;42.726;23.252;2024-02-21T10:15:02;95830.13;;;13.87;38.96
9261;BME280;4667;42.726;23.252;2024-02-21T10:17:29;95670.78;;;12.87;39.07
9261;BME280;4667;42.726;23.252;2024-02-21T10:20:07;95864.06;;;14.54;38.05
9261;BME280;4667;42.726;23.252;2024-02-21T10:22:34;95853.44;;;14.54;38.36
9261;BME280;4667;42.726;23.252;2024-02-21T10:25:08;95844.66;;;14.49;39.06
9261;BME280;4667;42.726;23.252;2024-02-21T10:27:36;95763.50;;;14.21;38.29
9261;BME280;4667;42.726;23.252;2024-02-21T10:30:04;95730.09;;;14.25;38.11
9261;BME280;4667;42.726;23.252;2024-02-21T10:32:31;95847.13;;;15.28;36.58
9261;BME280;4667;42.726;23.252;2024-02-21T10:35:02;95818.78;;;16.05;35.23
9261;BME280;4667;42.726;23.252;2024-02-21T10:37:30;95817.94;;;16.41;33.69
9261;BME280;4667;42.726;23.252;2024-02-21T10:39:57;95704.38;;;16.10;33.01
9261;BME280;4667;42.726;23.252;2024-02-21T10:42:29;95734.69;;;16.95;32.38
9261;BME280;4667;42.726;23.252;2024-02-21T10:45:00;95801.53;;;17.92;30.68
9261;BME280;4667;42.726;23.252;2024-02-21T10:47:32;95751.44;;;17.84;29.64
9261;BME280;4667;42.726;23.252;2024-02-21T10:50:04;95534.16;;;17.42;27.55
9261;BME280;4667;42.726;23.252;2024-02-21T10:52:45;95789.53;;;19.57;26.52
9261;BME280;4667;42.726;23.252;2024-02-21T10:55:20;95786.28;;;19.60;25.66
9261;BME280;4667;42.726;23.252;2024-02-21T10:57:50;95777.84;;;19.86;25.25
9261;BME280;4667;42.726;23.252;2024-02-21T11:00:18;95556.41;;;19.31;25.22
9261;BME280;4667;42.726;23.252;2024-02-21T11:02:47;95774.63;;;19.70;26.36
9261;BME280;4667;42.726;23.252;2024-02-21T11:05:15;95762.72;;;19.95;25.56
9261;BME280;4667;42.726;23.252;2024-02-21T11:07:42;95408.84;;;17.18;26.50
9261;BME280;4667;42.726;23.252;2024-02-21T11:10:20;95426.13;;;17.45;25.89
9261;BME280;4667;42.726;23.252;2024-02-21T11:12:52;95751.59;;;20.34;24.92
9261;BME280;4667;42.726;23.252;2024-02-21T11:15:25;95727.19;;;19.19;26.61
9261;BME280;4667;42.726;23.252;2024-02-21T11:17:55;95614.88;;;16.84;28.31
9261;BME280;4667;42.726;23.252;2024-02-21T11:20:32;95537.56;;;15.05;30.31
9261;BME280;4667;42.726;23.252;2024-02-21T11:23:00;95533.88;;;14.81;31.18
9261;BME280;4667;42.726;23.252;2024-02-21T11:25:28;95757.13;;;14.64;34.07
9261;BME280;4667;42.726;23.252;2024-02-21T11:28:01;95658.53;;;13.83;33.96
9261;BME280;4667;42.726;23.252;2024-02-21T11:30:30;95777.69;;;14.42;34.38
9261;BME280;4667;42.726;23.252;2024-02-21T11:33:01;95633.72;;;12.87;34.95
9261;BME280;4667;42.726;23.252;2024-02-21T11:35:32;95535.50;;;12.25;35.26
9261;BME280;4667;42.726;23.252;2024-02-21T11:38:09;95706.66;;;13.00;36.11
9261;BME280;4667;42.726;23.252;2024-02-21T11:40:40;95710.16;;;12.57;37.36
9261;BME280;4667;42.726;23.252;2024-02-21T11:43:08;95445.31;;;11.01;37.62
9261;BME280;4667;42.726;23.252;2024-02-21T11:45:35;95760.84;;;12.48;39.05
9261;BME280;4667;42.726;23.252;2024-02-21T11:48:05;95756.72;;;12.58;38.64
9261;BME280;4667;42.726;23.252;2024-02-21T11:50:34;95757.59;;;12.41;38.34
9261;BME280;4667;42.726;23.252;2024-02-21T11:53:01;95749.31;;;12.16;38.84
9261;BME280;4667;42.726;23.252;2024-02-21T11:55:28;95537.06;;;10.77;39.10
9261;BME280;4667;42.726;23.252;2024-02-21T11:57:55;95675.16;;;11.33;39.71
9261;BME280;4667;42.726;23.252;2024-02-21T12:00:26;95541.50;;;10.26;40.20
9261;BME280;4667;42.726;23.252;2024-02-21T12:02:53;95746.50;;;11.67;40.00
9261;BME280;4667;42.726;23.252;2024-02-21T12:05:21;95433.84;;;9.61;40.37
9261;BME280;4667;42.726;23.252;2024-02-21T12:07:47;95738.88;;;11.54;40.87
9261;BME280;4667;42.726;23.252;2024-02-21T12:10:15;95743.28;;;11.48;40.91
9261;BME280;4667;42.726;23.252;2024-02-21T12:12:41;95734.84;;;11.51;40.74
9261;BME280;4667;42.726;23.252;2024-02-21T12:15:08;95736.06;;;11.43;40.47
9261;BME280;4667;42.726;23.252;2024-02-21T12:17:37;95742.38;;;11.76;40.40
9261;BME280;4667;42.726;23.252;2024-02-21T12:20:05;95657.56;;;11.39;39.84
9261;BME280;4667;42.726;23.252;2024-02-21T12:22:35;95701.34;;;11.52;40.05
9261;BME280;4667;42.726;23.252;2024-02-21T12:25:03;95729.34;;;11.69;40.29
9261;BME280;4667;42.726;23.252;2024-02-21T12:27:33;95743.13;;;11.55;41.51
9261;BME280;4667;42.726;23.252;2024-02-21T12:30:00;95733.50;;;11.49;42.34
9261;BME280;4667;42.726;23.252;2024-02-21T12:32:36;95326.94;;;8.86;42.64
9261;BME280;4667;42.726;23.252;2024-02-21T12:35:05;95737.88;;;11.09;44.44
9261;BME280;4667;42.726;23.252;2024-02-21T12:37:32;95511.81;;;9.62;44.86
9261;BME280;4667;42.726;23.252;2024-02-21T12:39:59;95732.31;;;10.94;45.95
9261;BME280;4667;42.726;23.252;2024-02-21T12:42:26;95718.84;;;11.24;45.52
9261;BME280;4667;42.726;23.252;2024-02-21T12:44:54;95723.50;;;11.34;45.03
9261;BME280;4667;42.726;23.252;2024-02-21T12:47:21;95723.34;;;11.40;44.72
9261;BME280;4667;42.726;23.252;2024-02-21T12:49:51;95671.56;;;11.06;45.40
9261;BME280;4667;42.726;23.252;2024-02-21T12:52:19;95401.22;;;9.33;45.40
9261;BME280;4667;42.726;23.252;2024-02-21T12:54:45;95615.06;;;10.73;44.67
9261;BME280;4667;42.726;23.252;2024-02-21T12:57:13;95725.50;;;11.43;44.76
9261;BME280;4667;42.726;23.252;2024-02-21T12:59:40;95714.06;;;11.21;45.65
9261;BME280;4667;42.726;23.252;2024-02-21T13:02:07;95716.44;;;11.06;45.80
9261;BME280;4667;42.726;23.252;2024-02-21T13:04:35;95679.00;;;10.92;46.77
9261;BME280;4667;42.726;23.252;2024-02-21T13:07:07;95724.75;;;10.98;47.13
9261;BME280;4667;42.726;23.252;2024-02-21T13:09:34;95666.41;;;10.65;46.43
9261;BME280;4667;42.726;23.252;2024-02-21T13:12:01;95703.38;;;10.99;46.07
9261;BME280;4667;42.726;23.252;2024-02-21T13:14:29;95533.56;;;9.69;46.68
9261;BME280;4667;42.726;23.252;2024-02-21T13:16:55;95441.66;;;9.16;46.11
9261;BME280;4667;42.726;23.252;2024-02-21T13:19:22;95610.56;;;10.40;45.61
9261;BME280;4667;42.726;23.252;2024-02-21T13:21:52;95715.56;;;11.17;45.48
9261;BME280;4667;42.726;23.252;2024-02-21T13:24:20;95704.84;;;11.07;45.04
9261;BME280;4667;42.726;23.252;2024-02-21T13:26:53;95587.44;;;10.30;45.27